createdAt,value
2023-04-16T00:01:07.161Z,80.46
2023-04-16T00:03:35.894Z,80.50
2023-04-16T00:06:04.700Z,80.49
2023-04-16T00:08:33.493Z,80.35
2023-04-16T00:11:01.809Z,80.37
2023-04-16T00:13:37.081Z,80.37
2023-04-16T00:16:06.109Z,80.30
2023-04-16T00:18:34.356Z,80.36
2023-04-16T00:21:09.934Z,80.28
2023-04-16T00:23:38.324Z,80.34
2023-04-16T00:26:06.598Z,80.27
2023-04-16T00:28:37.060Z,80.29
2023-04-16T00:31:05.627Z,80.19
2023-04-16T00:33:34.435Z,80.20
2023-04-16T00:36:04.371Z,80.19
2023-04-16T00:38:34.333Z,80.16
2023-04-16T00:41:03.603Z,80.15
2023-04-16T00:43:31.971Z,80.18
2023-04-16T00:46:00.663Z,80.13
2023-04-16T00:48:32.628Z,80.12
2023-04-16T00:51:01.965Z,80.10
2023-04-16T00:53:30.960Z,80.15
2023-04-16T00:56:03.342Z,80.05
2023-04-16T00:58:32.947Z,80.09
2023-04-16T01:01:01.707Z,80.10
2023-04-16T01:03:40.465Z,80.04
2023-04-16T01:06:09.024Z,79.99
2023-04-16T01:08:37.464Z,79.95
2023-04-16T01:11:05.956Z,80.00
2023-04-16T01:13:39.446Z,79.97
2023-04-16T01:16:09.457Z,80.01
2023-04-16T01:18:38.385Z,80.00
2023-04-16T01:21:07.227Z,80.07
2023-04-16T01:23:39.146Z,80.08
2023-04-16T01:26:13.198Z,80.04
2023-04-16T01:28:43.619Z,80.20
2023-04-16T01:31:12.125Z,80.21
2023-04-16T01:33:59.711Z,80.25
2023-04-16T01:36:28.064Z,80.21
2023-04-16T01:38:56.808Z,80.29
2023-04-16T01:41:25.999Z,80.38
2023-04-16T01:43:54.332Z,80.30
2023-04-16T01:46:27.374Z,80.32
2023-04-16T01:48:56.168Z,80.39
2023-04-16T01:51:24.658Z,80.40
2023-04-16T01:53:52.983Z,80.44
2023-04-16T01:56:21.901Z,80.49
2023-04-16T01:58:50.493Z,80.46
2023-04-16T02:01:23.807Z,80.55
2023-04-16T02:03:54.635Z,80.59
2023-04-16T02:06:23.484Z,80.54
2023-04-16T02:08:51.834Z,80.55
2023-04-16T02:11:21.451Z,80.54
2023-04-16T02:13:50.943Z,80.55
2023-04-16T02:16:20.215Z,80.50
2023-04-16T02:18:52.584Z,80.51
2023-04-16T02:21:25.435Z,80.39
2023-04-16T02:24:15.375Z,80.33
2023-04-16T02:26:57.267Z,80.31
2023-04-16T02:29:41.398Z,80.32
2023-04-16T02:32:19.904Z,80.29
2023-04-16T02:34:52.752Z,80.34
2023-04-16T02:37:21.692Z,80.17
2023-04-16T02:39:54.034Z,80.27
2023-04-16T02:42:28.863Z,80.19
2023-04-16T02:45:00.421Z,80.13
2023-04-16T02:47:29.403Z,80.15
2023-04-16T02:50:00.254Z,80.09
2023-04-16T02:52:28.967Z,80.11
2023-04-16T02:54:57.261Z,80.23
2023-04-16T02:57:26.287Z,80.09
2023-04-16T02:59:54.636Z,80.22
2023-04-16T03:02:23.127Z,80.17
2023-04-16T03:04:55.316Z,80.08
2023-04-16T03:07:23.565Z,79.94
2023-04-16T03:09:52.061Z,79.87
2023-04-16T03:12:21.080Z,79.93
2023-04-16T03:14:52.720Z,79.86
2023-04-16T03:17:21.199Z,79.86
2023-04-16T03:19:53.254Z,79.86
2023-04-16T03:22:22.108Z,79.85
2023-04-16T03:24:50.424Z,79.75
2023-04-16T03:27:18.678Z,79.74
2023-04-16T03:29:47.297Z,79.69
2023-04-16T03:32:15.755Z,79.70
2023-04-16T03:34:44.242Z,79.70
2023-04-16T03:37:12.638Z,79.69
2023-04-16T03:39:41.191Z,79.70
2023-04-16T03:42:12.033Z,79.75
2023-04-16T03:44:40.761Z,79.78
2023-04-16T03:47:10.131Z,79.78
2023-04-16T03:49:42.169Z,79.73
2023-04-16T03:52:11.595Z,79.98
2023-04-16T03:54:41.508Z,79.99
2023-04-16T03:57:21.280Z,79.97
2023-04-16T03:59:50.264Z,79.92
2023-04-16T04:02:19.394Z,79.98
2023-04-16T04:04:49.032Z,80.05
2023-04-16T04:07:18.178Z,80.05
2023-04-16T04:09:46.423Z,80.08
2023-04-16T04:12:14.739Z,80.11
2023-04-16T04:14:43.664Z,80.16
2023-04-16T04:17:12.364Z,80.27
2023-04-16T04:19:47.033Z,80.19
2023-04-16T04:22:24.076Z,80.29
2023-04-16T04:24:54.041Z,80.29
2023-04-16T04:27:22.962Z,80.32
2023-04-16T04:29:51.297Z,80.34
2023-04-16T04:32:19.626Z,80.35
2023-04-16T04:34:50.382Z,80.35
2023-04-16T04:37:18.746Z,80.42
2023-04-16T04:39:47.136Z,80.51
2023-04-16T04:42:19.610Z,80.44
2023-04-16T04:44:48.088Z,80.44
2023-04-16T04:47:16.778Z,80.49
2023-04-16T04:49:44.997Z,80.47
2023-04-16T04:52:14.811Z,80.60
2023-04-16T04:54:45.651Z,80.46
2023-04-16T04:57:13.892Z,80.45
2023-04-16T04:59:42.168Z,80.39
2023-04-16T05:02:12.066Z,80.38
2023-04-16T05:04:40.781Z,80.35
2023-04-16T05:07:09.077Z,80.40
2023-04-16T05:09:37.480Z,80.38
2023-04-16T05:12:05.943Z,80.18
2023-04-16T05:14:35.151Z,80.01
2023-04-16T05:17:04.616Z,80.03
2023-04-16T05:19:33.858Z,79.81
2023-04-16T05:22:02.936Z,79.63
2023-04-16T05:24:31.547Z,79.57
2023-04-16T05:26:59.846Z,79.53
2023-04-16T05:29:29.857Z,79.24
2023-04-16T05:31:58.385Z,79.09
2023-04-16T05:34:26.608Z,78.92
2023-04-16T05:36:55.988Z,78.84
2023-04-16T05:39:24.282Z,78.77
2023-04-16T05:41:52.793Z,78.74
2023-04-16T05:44:21.605Z,78.72
2023-04-16T05:46:52.513Z,78.77
2023-04-16T05:49:21.699Z,78.57
2023-04-16T05:51:51.220Z,78.47
2023-04-16T05:54:19.868Z,78.42
2023-04-16T05:56:48.273Z,78.31
2023-04-16T05:59:17.212Z,78.32
2023-04-16T06:01:45.831Z,78.04
2023-04-16T06:04:14.259Z,78.01
2023-04-16T06:06:42.985Z,77.92
2023-04-16T06:09:14.215Z,77.73
2023-04-16T06:11:42.496Z,77.64
2023-04-16T06:14:11.099Z,77.76
2023-04-16T06:16:39.451Z,77.85
2023-04-16T06:19:07.826Z,77.77
2023-04-16T06:21:38.091Z,77.65
2023-04-16T06:24:06.673Z,77.66
2023-04-16T06:26:35.500Z,77.52
2023-04-16T06:29:04.052Z,77.39
2023-04-16T06:31:32.806Z,77.16
2023-04-16T06:34:01.651Z,77.10
2023-04-16T06:36:30.818Z,77.06
2023-04-16T06:38:59.060Z,76.90
2023-04-16T06:41:27.638Z,76.96
2023-04-16T06:43:55.897Z,76.62
2023-04-16T06:46:24.235Z,76.30
2023-04-16T06:48:54.837Z,76.52
2023-04-16T06:51:23.064Z,76.59
2023-04-16T06:53:51.488Z,76.60
2023-04-16T06:56:19.861Z,76.57
2023-04-16T06:58:48.603Z,76.33
2023-04-16T07:01:17.989Z,76.19
2023-04-16T07:03:46.596Z,76.13
2023-04-16T07:06:16.901Z,76.20
2023-04-16T07:08:45.675Z,76.12
2023-04-16T07:11:14.379Z,76.06
2023-04-16T07:13:42.620Z,76.06
2023-04-16T07:16:11.231Z,76.00
2023-04-16T07:18:39.798Z,75.94
2023-04-16T07:21:08.168Z,75.64
2023-04-16T07:23:36.651Z,75.32
2023-04-16T07:26:05.098Z,75.37
2023-04-16T07:28:34.083Z,75.30
2023-04-16T07:31:02.405Z,75.41
2023-04-16T07:33:31.318Z,75.40
2023-04-16T07:36:03.255Z,75.35
2023-04-16T07:38:31.566Z,75.29
2023-04-16T07:41:00.142Z,75.41
2023-04-16T07:43:28.910Z,75.29
2023-04-16T07:46:00.701Z,75.18
2023-04-16T07:48:28.965Z,75.07
2023-04-16T07:50:57.341Z,74.82
2023-04-16T07:53:25.614Z,74.94
2023-04-16T07:55:53.915Z,74.97
2023-04-16T07:58:24.865Z,74.75
2023-04-16T08:00:53.592Z,74.74
2023-04-16T08:03:23.007Z,74.67
2023-04-16T08:05:51.547Z,74.67
2023-04-16T08:08:20.429Z,74.69
2023-04-16T08:10:50.665Z,74.66
2023-04-16T08:13:20.673Z,74.73
2023-04-16T08:15:48.962Z,74.84
2023-04-16T08:18:17.703Z,74.73
2023-04-16T08:20:47.888Z,74.62
2023-04-16T08:23:19.033Z,74.42
2023-04-16T08:25:48.063Z,74.35
2023-04-16T08:28:18.912Z,74.15
2023-04-16T08:30:48.125Z,73.64
2023-04-16T08:33:17.735Z,73.60
2023-04-16T08:35:47.347Z,73.48
2023-04-16T08:38:17.139Z,73.36
2023-04-16T08:40:49.389Z,73.26
2023-04-16T08:43:18.419Z,73.32
2023-04-16T08:45:47.702Z,73.17
2023-04-16T08:48:16.106Z,72.95
2023-04-16T08:50:44.806Z,72.73
2023-04-16T08:53:17.685Z,72.74
2023-04-16T08:55:51.256Z,72.64
2023-04-16T08:58:21.634Z,72.87
2023-04-16T09:00:50.065Z,72.79
2023-04-16T09:03:20.418Z,73.04
2023-04-16T09:05:49.732Z,73.18
2023-04-16T09:08:21.657Z,73.29
2023-04-16T09:10:50.015Z,73.17
2023-04-16T09:13:20.837Z,73.25
2023-04-16T09:15:57.319Z,72.92
2023-04-16T09:18:25.993Z,72.34
2023-04-16T09:20:57.017Z,72.15
2023-04-16T09:23:25.873Z,72.18
2023-04-16T09:25:54.323Z,71.97
2023-04-16T09:28:45.429Z,71.93
2023-04-16T09:31:14.697Z,72.05
2023-04-16T09:33:43.525Z,72.31
2023-04-16T09:36:11.994Z,72.40
2023-04-16T09:38:50.851Z,72.43
2023-04-16T09:41:19.346Z,72.54
2023-04-16T09:44:04.736Z,72.70
2023-04-16T09:47:08.761Z,72.43
2023-04-16T09:49:43.565Z,72.18
2023-04-16T09:52:20.024Z,71.93
2023-04-16T09:54:51.779Z,71.72
2023-04-16T09:57:22.262Z,71.55
2023-04-16T10:00:18.540Z,71.31
2023-04-16T10:02:48.036Z,71.19
2023-04-16T10:05:18.953Z,70.99
2023-04-16T10:07:49.708Z,70.46
2023-04-16T10:10:19.286Z,70.27
2023-04-16T10:12:52.003Z,70.32
2023-04-16T10:15:20.174Z,70.43
2023-04-16T10:17:50.681Z,70.31
2023-04-16T10:20:19.062Z,69.69
2023-04-16T10:22:47.433Z,69.41
2023-04-16T10:25:16.728Z,69.24
2023-04-16T10:27:45.105Z,69.13
2023-04-16T10:30:14.841Z,69.06
2023-04-16T10:32:53.647Z,69.22
2023-04-16T10:35:25.590Z,69.41
2023-04-16T10:37:57.429Z,69.66
2023-04-16T10:40:27.353Z,69.95
2023-04-16T10:42:58.809Z,70.17
2023-04-16T10:45:38.580Z,70.27
2023-04-16T10:48:10.186Z,70.30
2023-04-16T10:50:38.602Z,70.39
2023-04-16T10:53:20.610Z,70.62
2023-04-16T10:56:04.851Z,70.82
2023-04-16T10:58:36.058Z,71.02
2023-04-16T11:01:12.434Z,71.03
2023-04-16T11:03:47.185Z,71.18
2023-04-16T11:06:22.346Z,71.14
2023-04-16T11:08:55.035Z,71.26
2023-04-16T11:11:23.805Z,71.39
2023-04-16T11:13:58.865Z,71.50
2023-04-16T11:16:27.228Z,71.37
2023-04-16T11:18:58.196Z,71.52
2023-04-16T11:21:27.115Z,71.65
2023-04-16T11:23:57.152Z,71.48
2023-04-16T11:26:27.725Z,71.41
2023-04-16T11:28:57.160Z,71.50
2023-04-16T11:31:27.523Z,71.45
2023-04-16T11:33:57.095Z,71.23
2023-04-16T11:36:27.468Z,71.10
2023-04-16T11:39:02.454Z,70.95
2023-04-16T11:41:30.968Z,69.96
2023-04-16T11:43:59.263Z,69.78
2023-04-16T11:46:40.943Z,69.51
2023-04-16T11:49:09.489Z,69.85
2023-04-16T11:51:42.229Z,70.02
2023-04-16T11:54:20.950Z,69.99
2023-04-16T11:56:50.554Z,68.45
2023-04-16T11:59:25.724Z,67.16
2023-04-16T12:01:56.121Z,66.17
2023-04-16T12:04:27.009Z,65.34
2023-04-16T12:07:12.563Z,65.43
2023-04-16T12:09:42.944Z,65.61
2023-04-16T12:12:33.461Z,65.53
2023-04-16T12:15:05.384Z,65.29
2023-04-16T12:17:35.629Z,65.36
2023-04-16T12:20:15.268Z,65.35
2023-04-16T12:22:47.939Z,65.08
2023-04-16T12:25:17.312Z,65.38
2023-04-16T12:27:53.953Z,65.49
2023-04-16T12:30:23.702Z,66.73
2023-04-16T12:33:19.555Z,67.10
2023-04-16T12:35:47.932Z,67.00
2023-04-16T12:38:18.220Z,66.75
2023-04-16T12:40:46.703Z,67.19
2023-04-16T12:43:15.191Z,67.30
2023-04-16T12:45:43.438Z,67.35
2023-04-16T12:48:11.756Z,67.45
2023-04-16T12:50:40.394Z,66.37
2023-04-16T12:53:08.599Z,65.42
2023-04-16T12:55:36.967Z,65.64
2023-04-16T12:58:05.223Z,66.94
2023-04-16T13:00:34.448Z,67.34
2023-04-16T13:03:02.901Z,67.53
2023-04-16T13:05:31.650Z,67.24
2023-04-16T13:08:02.430Z,65.99
2023-04-16T13:10:31.723Z,65.52
2023-04-16T13:13:00.079Z,65.48
2023-04-16T13:15:29.848Z,65.74
2023-04-16T13:17:58.195Z,67.15
2023-04-16T13:20:26.452Z,67.86
2023-04-16T13:22:55.246Z,68.20
2023-04-16T13:25:23.462Z,68.17
2023-04-16T13:27:52.223Z,68.06
2023-04-16T13:30:20.812Z,67.99
2023-04-16T13:32:49.461Z,68.04
2023-04-16T13:35:17.806Z,68.07
2023-04-16T13:37:46.674Z,67.99
2023-04-16T13:40:17.141Z,67.87
2023-04-16T13:42:45.868Z,67.68
2023-04-16T13:45:14.334Z,67.59
2023-04-16T13:47:43.803Z,67.71
2023-04-16T13:50:12.126Z,67.80
2023-04-16T13:52:41.431Z,68.00
2023-04-16T13:55:10.655Z,68.07
2023-04-16T13:57:39.109Z,68.28
2023-04-16T14:00:08.422Z,68.34
2023-04-16T14:02:37.355Z,68.34
2023-04-16T14:05:07.140Z,68.55
2023-04-16T14:07:36.626Z,68.62
2023-04-16T14:10:05.184Z,68.62
2023-04-16T14:12:33.716Z,68.60
2023-04-16T14:15:10.833Z,68.54
2023-04-16T14:17:39.366Z,68.45
2023-04-16T14:20:09.605Z,68.48
2023-04-16T14:22:39.818Z,68.42
2023-04-16T14:25:08.300Z,68.44
2023-04-16T14:27:36.845Z,68.53
2023-04-16T14:30:06.330Z,68.56
2023-04-16T14:32:34.846Z,68.60
2023-04-16T14:35:03.346Z,68.78
2023-04-16T14:37:36.773Z,68.80
2023-04-16T14:40:09.028Z,68.71
2023-04-16T14:42:39.939Z,67.84
2023-04-16T14:45:09.522Z,67.17
2023-04-16T14:47:46.001Z,66.09
2023-04-16T14:50:15.853Z,65.73
2023-04-16T14:52:44.155Z,65.51
2023-04-16T14:55:12.736Z,65.44
2023-04-16T14:57:42.665Z,66.53
2023-04-16T15:00:12.174Z,67.43
2023-04-16T15:02:41.069Z,66.78
2023-04-16T15:05:10.736Z,67.87
2023-04-16T15:07:39.227Z,68.39
2023-04-16T15:10:08.858Z,68.76
2023-04-16T15:12:38.898Z,69.02
2023-04-16T15:15:08.376Z,69.73
2023-04-16T15:17:37.051Z,70.24
2023-04-16T15:20:08.705Z,70.59
2023-04-16T15:22:38.361Z,70.82
2023-04-16T15:25:07.002Z,71.05
2023-04-16T15:27:36.751Z,71.10
2023-04-16T15:30:06.751Z,69.95
2023-04-16T15:32:35.442Z,69.15
2023-04-16T15:35:13.796Z,69.20
2023-04-16T15:37:46.415Z,69.05
2023-04-16T15:40:16.208Z,68.65
2023-04-16T15:42:45.069Z,68.45
2023-04-16T15:45:13.327Z,68.32
2023-04-16T15:47:42.137Z,68.45
2023-04-16T15:50:10.556Z,69.88
2023-04-16T15:52:42.186Z,70.63
2023-04-16T15:55:10.899Z,70.77
2023-04-16T15:57:39.459Z,71.02
2023-04-16T16:00:16.651Z,71.09
2023-04-16T16:02:47.228Z,71.41
2023-04-16T16:05:16.196Z,71.62
2023-04-16T16:07:44.815Z,71.79
2023-04-16T16:10:13.477Z,71.84
2023-04-16T16:12:42.557Z,72.00
2023-04-16T16:15:11.384Z,71.98
2023-04-16T16:17:43.693Z,71.97
2023-04-16T16:20:13.760Z,72.02
2023-04-16T16:22:45.468Z,72.08
2023-04-16T16:25:14.682Z,72.27
2023-04-16T16:27:43.852Z,72.27
2023-04-16T16:30:12.672Z,72.50
2023-04-16T16:32:41.279Z,72.54
2023-04-16T16:35:11.201Z,72.68
2023-04-16T16:37:39.716Z,72.71
2023-04-16T16:40:09.008Z,72.81
2023-04-16T16:42:38.623Z,72.86
2023-04-16T16:45:07.981Z,73.00
2023-04-16T16:47:37.560Z,73.07
2023-04-16T16:50:07.271Z,73.19
2023-04-16T16:52:35.937Z,73.22
2023-04-16T16:55:04.500Z,73.22
2023-04-16T16:57:32.734Z,73.30
2023-04-16T17:00:01.127Z,73.24
2023-04-16T17:02:32.576Z,73.29
2023-04-16T17:05:01.408Z,73.47
2023-04-16T17:07:30.242Z,73.48
2023-04-16T17:10:01.354Z,73.53
2023-04-16T17:12:32.318Z,73.53
2023-04-16T17:15:00.925Z,73.46
2023-04-16T17:17:29.520Z,73.46
2023-04-16T17:19:58.060Z,73.44
2023-04-16T17:22:26.357Z,73.34
2023-04-16T17:24:54.610Z,73.47
2023-04-16T17:27:22.904Z,73.40
2023-04-16T17:29:53.166Z,73.33
2023-04-16T17:32:21.706Z,73.41
2023-04-16T17:34:50.957Z,73.41
2023-04-16T17:37:19.323Z,73.49
2023-04-16T17:39:48.244Z,73.47
2023-04-16T17:42:18.584Z,73.55
2023-04-16T17:44:47.448Z,73.54
2023-04-16T17:47:19.528Z,73.57
2023-04-16T17:49:48.764Z,73.61
2023-04-16T17:52:50.345Z,73.73
2023-04-16T17:55:19.225Z,73.70
2023-04-16T17:57:47.677Z,73.63
2023-04-16T18:00:16.544Z,73.55
2023-04-16T18:02:45.563Z,73.59
2023-04-16T18:05:14.035Z,73.55
2023-04-16T18:07:58.465Z,73.48
2023-04-16T18:10:27.191Z,73.41
2023-04-16T18:12:55.963Z,73.43
2023-04-16T18:15:24.443Z,73.37
2023-04-16T18:17:55.676Z,73.34
2023-04-16T18:20:24.554Z,73.28
2023-04-16T18:22:54.847Z,73.36
2023-04-16T18:25:32.201Z,73.23
2023-04-16T18:28:04.046Z,73.32
2023-04-16T18:30:34.546Z,73.29
2023-04-16T18:35:48.089Z,73.33
2023-04-16T18:38:17.624Z,73.31
2023-04-16T18:40:47.143Z,73.34
2023-04-16T18:43:18.022Z,73.43
2023-04-16T18:45:47.535Z,73.48
2023-04-16T18:48:15.957Z,73.42
2023-04-16T18:50:44.160Z,73.41
2023-04-16T18:53:12.354Z,73.27
2023-04-16T18:55:42.496Z,73.30
2023-04-16T18:58:12.338Z,73.39
2023-04-16T19:00:40.733Z,73.42
2023-04-16T19:03:12.493Z,73.43
2023-04-16T19:05:42.505Z,73.39
2023-04-16T19:08:13.481Z,73.40
2023-04-16T19:10:41.961Z,73.36
2023-04-16T19:13:11.670Z,73.38
2023-04-16T19:15:41.016Z,73.41
2023-04-16T19:18:12.005Z,73.41
2023-04-16T19:20:40.599Z,73.32
2023-04-16T19:23:09.504Z,73.12
2023-04-16T19:25:39.043Z,73.04
2023-04-16T19:28:07.628Z,73.01
2023-04-16T19:30:36.249Z,72.88
2023-04-16T19:33:04.978Z,72.82
2023-04-16T19:35:35.063Z,72.81
2023-04-16T19:38:03.657Z,72.69
2023-04-16T19:40:42.350Z,72.60
2023-04-16T19:43:12.888Z,72.50
2023-04-16T19:45:52.472Z,72.57
2023-04-16T19:48:21.727Z,72.50
2023-04-16T19:50:50.617Z,72.41
2023-04-16T19:53:19.045Z,72.41
2023-04-16T19:55:47.371Z,72.28
2023-04-16T19:58:15.726Z,72.17
2023-04-16T20:00:44.194Z,72.09
2023-04-16T20:03:13.049Z,72.07
2023-04-16T20:05:42.536Z,72.02
2023-04-16T20:08:10.741Z,72.00
2023-04-16T20:10:39.278Z,71.85
2023-04-16T20:13:12.278Z,71.89
2023-04-16T20:15:43.802Z,71.84
2023-04-16T20:18:13.147Z,71.86
2023-04-16T20:20:41.777Z,72.02
2023-04-16T20:23:10.099Z,72.01
2023-04-16T20:25:42.747Z,72.03
2023-04-16T20:28:11.013Z,71.99
2023-04-16T20:30:40.865Z,72.10
2023-04-16T20:33:09.323Z,72.15
2023-04-16T20:35:37.758Z,72.23
2023-04-16T20:38:05.998Z,72.21
2023-04-16T20:40:38.264Z,72.24
2023-04-16T20:43:10.428Z,72.33
2023-04-16T20:45:41.046Z,72.30
2023-04-16T20:48:11.997Z,72.31
2023-04-16T20:50:40.820Z,72.32
2023-04-16T20:53:09.291Z,72.35
2023-04-16T20:55:37.537Z,72.40
2023-04-16T20:58:07.089Z,72.32
2023-04-16T21:00:36.515Z,72.33
2023-04-16T21:03:04.851Z,72.36
2023-04-16T21:05:34.349Z,72.27
2023-04-16T21:08:02.646Z,72.21
2023-04-16T21:10:31.565Z,72.17
2023-04-16T21:13:06.511Z,72.06
2023-04-16T21:15:35.171Z,72.01
2023-04-16T21:18:03.780Z,71.97
2023-04-16T21:20:32.647Z,71.90
2023-04-16T21:23:01.715Z,71.86
2023-04-16T21:25:30.689Z,71.71
2023-04-16T21:27:59.377Z,71.61
2023-04-16T21:30:27.702Z,71.45
2023-04-16T21:32:56.106Z,71.42
2023-04-16T21:35:25.546Z,71.44
2023-04-16T21:37:53.811Z,71.43
2023-04-16T21:40:24.139Z,71.48
2023-04-16T21:42:52.426Z,71.51
2023-04-16T21:45:20.701Z,71.54
2023-04-16T21:47:48.942Z,71.63
2023-04-16T21:50:17.428Z,71.60
2023-04-16T21:52:47.006Z,71.57
2023-04-16T21:55:15.325Z,71.73
2023-04-16T21:57:43.503Z,71.81
2023-04-16T22:00:15.087Z,71.92
2023-04-16T22:02:43.792Z,71.95
2023-04-16T22:05:12.284Z,72.21
2023-04-16T22:07:40.899Z,72.28
2023-04-16T22:10:09.699Z,72.40
2023-04-16T22:12:40.097Z,72.45
2023-04-16T22:15:09.262Z,72.47
2023-04-16T22:17:38.905Z,72.53
2023-04-16T22:20:11.963Z,72.49
2023-04-16T22:22:41.632Z,72.61
2023-04-16T22:25:12.853Z,72.52
2023-04-16T22:27:41.186Z,72.53
2023-04-16T22:30:09.975Z,72.58
2023-04-16T22:32:38.769Z,72.57
2023-04-16T22:35:07.904Z,72.67
2023-04-16T22:37:39.508Z,72.60
2023-04-16T22:40:09.103Z,72.57
2023-04-16T22:42:37.536Z,72.67
2023-04-16T22:45:07.495Z,72.66
2023-04-16T22:47:36.644Z,72.65
2023-04-16T22:50:07.071Z,72.70
2023-04-16T22:52:36.126Z,72.66
2023-04-16T22:55:05.416Z,72.72
2023-04-16T22:57:34.018Z,72.69
2023-04-16T23:00:05.640Z,72.69
2023-04-16T23:02:34.821Z,72.70
2023-04-16T23:05:03.810Z,72.70
2023-04-16T23:07:32.123Z,72.86
2023-04-16T23:10:00.447Z,72.93
2023-04-16T23:12:28.732Z,72.99
2023-04-16T23:14:57.074Z,72.93
2023-04-16T23:17:25.413Z,72.98
2023-04-16T23:19:53.761Z,72.97
2023-04-16T23:22:22.026Z,73.06
2023-04-16T23:24:50.407Z,72.96
2023-04-16T23:27:20.626Z,73.06
2023-04-16T23:29:50.139Z,72.99
2023-04-16T23:32:18.648Z,72.86
2023-04-16T23:34:47.390Z,72.93
2023-04-16T23:37:15.804Z,72.79
2023-04-16T23:39:44.428Z,72.80
2023-04-16T23:42:12.910Z,72.65
2023-04-16T23:44:41.373Z,72.76
2023-04-16T23:47:09.755Z,72.69
2023-04-16T23:49:38.466Z,72.70
2023-04-16T23:52:07.685Z,72.65
2023-04-16T23:54:36.207Z,72.65
2023-04-16T23:57:04.894Z,72.77
2023-04-16T23:59:33.597Z,72.75
